createdAt,value
2017-05-13T00:00:08.619Z,992.52
2017-05-13T00:01:08.660Z,992.52
2017-05-13T00:02:08.700Z,992.51
2017-05-13T00:03:08.737Z,992.52
2017-05-13T00:04:08.779Z,992.51
2017-05-13T00:05:08.816Z,992.57
2017-05-13T00:06:08.854Z,992.57
2017-05-13T00:07:08.896Z,992.53
2017-05-13T00:08:08.935Z,992.53
2017-05-13T00:09:08.975Z,992.54
2017-05-13T00:10:09.013Z,992.55
2017-05-13T00:11:09.054Z,992.55
2017-05-13T00:12:09.092Z,992.53
2017-05-13T00:13:09.131Z,992.55
2017-05-13T00:14:09.173Z,992.53
2017-05-13T00:15:09.210Z,992.51
2017-05-13T00:16:09.249Z,992.55
2017-05-13T00:17:09.289Z,992.57
2017-05-13T00:18:09.328Z,992.58
2017-05-13T00:19:09.366Z,992.51
2017-05-13T00:20:09.406Z,992.56
2017-05-13T00:21:09.446Z,992.56
2017-05-13T00:22:09.517Z,992.54
2017-05-13T00:23:09.523Z,992.55
2017-05-13T00:24:09.563Z,992.54
2017-05-13T00:25:09.602Z,992.54
2017-05-13T00:26:09.642Z,992.5
2017-05-13T00:27:09.683Z,992.52
2017-05-13T00:28:09.719Z,992.51
2017-05-13T00:29:09.761Z,992.46
2017-05-13T00:30:09.797Z,992.49
2017-05-13T00:31:09.837Z,992.49
2017-05-13T00:32:09.878Z,992.49
2017-05-13T00:33:09.916Z,992.48
2017-05-13T00:34:09.954Z,992.48
2017-05-13T00:35:09.994Z,992.48
2017-05-13T00:36:10.034Z,992.47
2017-05-13T00:37:10.074Z,992.46
2017-05-13T00:38:10.113Z,992.44
2017-05-13T00:39:10.151Z,992.42
2017-05-13T00:40:10.190Z,992.44
2017-05-13T00:41:10.232Z,992.44
2017-05-13T00:42:10.269Z,992.43
2017-05-13T00:43:10.309Z,992.42
2017-05-13T00:44:10.348Z,992.42
2017-05-13T00:45:10.386Z,992.43
2017-05-13T00:46:10.424Z,992.42
2017-05-13T00:47:10.464Z,992.46
2017-05-13T00:48:10.504Z,992.47
2017-05-13T00:49:10.542Z,992.47
2017-05-13T00:50:10.583Z,992.49
2017-05-13T00:51:10.620Z,992.45
2017-05-13T00:52:10.661Z,992.44
2017-05-13T00:53:10.699Z,992.43
2017-05-13T00:54:10.740Z,992.44
2017-05-13T00:55:10.778Z,992.44
2017-05-13T00:56:10.818Z,992.47
2017-05-13T00:57:10.856Z,992.45
2017-05-13T00:58:10.895Z,992.45
2017-05-13T00:59:10.936Z,992.43
2017-05-13T01:00:10.976Z,992.43
2017-05-13T01:01:11.014Z,992.51
2017-05-13T01:02:11.053Z,992.43
2017-05-13T01:03:11.093Z,992.47
2017-05-13T01:04:11.130Z,992.48
2017-05-13T01:05:11.170Z,992.47
2017-05-13T01:06:11.211Z,992.49
2017-05-13T01:07:11.249Z,992.46
2017-05-13T01:08:11.289Z,992.46
2017-05-13T01:09:11.329Z,992.44
2017-05-13T01:10:11.367Z,992.41
2017-05-13T01:11:11.405Z,992.44
2017-05-13T01:12:11.444Z,992.42
2017-05-13T01:13:11.484Z,992.41
2017-05-13T01:14:11.523Z,992.43
2017-05-13T01:15:11.562Z,992.42
2017-05-13T01:16:11.603Z,992.39
2017-05-13T01:17:11.641Z,992.41
2017-05-13T01:18:11.680Z,992.42
2017-05-13T01:19:11.719Z,992.47
2017-05-13T01:20:11.759Z,992.42
2017-05-13T01:21:11.797Z,992.41
2017-05-13T01:22:11.836Z,992.41
2017-05-13T01:23:11.874Z,992.35
2017-05-13T01:24:11.915Z,992.4
2017-05-13T01:25:11.951Z,992.4
2017-05-13T01:26:11.994Z,992.38
2017-05-13T01:27:12.032Z,992.42
2017-05-13T01:28:12.071Z,992.41
2017-05-13T01:29:12.113Z,992.43
2017-05-13T01:30:12.149Z,992.44
2017-05-13T01:31:12.187Z,992.42
2017-05-13T01:32:12.227Z,992.42
2017-05-13T01:33:12.265Z,992.42
2017-05-13T01:34:12.306Z,992.41
2017-05-13T01:35:12.342Z,992.4
2017-05-13T01:36:12.384Z,992.43
2017-05-13T01:37:12.424Z,992.43
2017-05-13T01:38:12.461Z,992.44
2017-05-13T01:39:12.500Z,992.48
2017-05-13T01:40:12.540Z,992.49
2017-05-13T01:41:12.578Z,992.53
2017-05-13T01:42:12.619Z,992.53
2017-05-13T01:43:12.656Z,992.55
2017-05-13T01:44:12.695Z,992.54
2017-05-13T01:45:12.734Z,992.56
2017-05-13T01:46:12.783Z,992.55
2017-05-13T01:47:12.813Z,992.58
2017-05-13T01:48:12.851Z,992.58
2017-05-13T01:49:12.891Z,992.58
2017-05-13T01:50:12.930Z,992.59
2017-05-13T01:51:12.970Z,992.61
2017-05-13T01:52:13.008Z,992.58
2017-05-13T01:53:13.047Z,992.63
2017-05-13T01:54:13.085Z,992.6
2017-05-13T01:55:13.126Z,992.63
2017-05-13T01:56:13.164Z,992.64
2017-05-13T01:57:13.204Z,992.64
2017-05-13T01:58:13.242Z,992.65
2017-05-13T01:59:13.282Z,992.64
2017-05-13T02:00:13.321Z,992.64
2017-05-13T02:01:13.361Z,992.65
2017-05-13T02:02:13.398Z,992.63
2017-05-13T02:03:13.437Z,992.62
2017-05-13T02:04:13.476Z,992.57
2017-05-13T02:05:13.514Z,992.58
2017-05-13T02:06:13.554Z,992.55
2017-05-13T02:07:13.595Z,992.57
2017-05-13T02:08:13.632Z,992.59
2017-05-13T02:09:13.673Z,992.58
2017-05-13T02:10:13.712Z,992.59
2017-05-13T02:11:13.750Z,992.61
2017-05-13T02:12:13.789Z,992.59
2017-05-13T02:13:13.827Z,992.6
2017-05-13T02:14:13.866Z,992.6
2017-05-13T02:15:13.907Z,992.62
2017-05-13T02:16:13.944Z,992.61
2017-05-13T02:17:13.983Z,992.56
2017-05-13T02:18:14.022Z,992.58
2017-05-13T02:19:14.062Z,992.61
2017-05-13T02:20:14.101Z,992.63
2017-05-13T02:21:14.140Z,992.64
2017-05-13T02:22:14.180Z,992.65
2017-05-13T02:23:14.219Z,992.66
2017-05-13T02:24:14.259Z,992.7
2017-05-13T02:25:14.295Z,992.7
2017-05-13T02:26:14.336Z,992.7
2017-05-13T02:27:14.375Z,992.74
2017-05-13T02:28:14.414Z,992.72
2017-05-13T02:29:14.452Z,992.73
2017-05-13T02:30:14.492Z,992.72
2017-05-13T02:31:14.530Z,992.72
2017-05-13T02:32:14.568Z,992.72
2017-05-13T02:33:14.612Z,992.71
2017-05-13T02:34:14.648Z,992.71
2017-05-13T02:35:14.686Z,992.72
2017-05-13T02:36:14.725Z,992.69
2017-05-13T02:37:14.766Z,992.73
2017-05-13T02:38:14.804Z,992.67
2017-05-13T02:39:14.843Z,992.7
2017-05-13T02:40:14.881Z,992.74
2017-05-13T02:41:14.922Z,992.71
2017-05-13T02:42:14.959Z,992.73
2017-05-13T02:43:14.998Z,992.76
2017-05-13T02:44:15.039Z,992.7
2017-05-13T02:45:15.077Z,992.75
2017-05-13T02:46:15.116Z,992.75
2017-05-13T02:47:15.155Z,992.74
2017-05-13T02:48:15.193Z,992.77
2017-05-13T02:49:15.233Z,992.76
2017-05-13T02:50:15.271Z,992.74
2017-05-13T02:51:15.310Z,992.75
2017-05-13T02:52:15.351Z,992.78
2017-05-13T02:53:15.389Z,992.77
2017-05-13T02:54:15.426Z,992.77
2017-05-13T02:55:15.467Z,992.77
2017-05-13T02:56:15.505Z,992.77
2017-05-13T02:57:15.548Z,992.76
2017-05-13T02:58:15.584Z,992.72
2017-05-13T02:59:15.624Z,992.78
2017-05-13T03:00:15.660Z,992.76
2017-05-13T03:01:15.701Z,992.79
2017-05-13T03:02:15.740Z,992.76
2017-05-13T03:03:15.778Z,992.75
2017-05-13T03:04:15.816Z,992.82
2017-05-13T03:05:15.856Z,992.8
2017-05-13T03:06:15.896Z,992.81
2017-05-13T03:07:15.934Z,992.81
2017-05-13T03:08:15.971Z,992.8
2017-05-13T03:09:16.012Z,992.8
2017-05-13T03:10:16.051Z,992.86
2017-05-13T03:11:16.089Z,992.88
2017-05-13T03:12:16.129Z,992.91
2017-05-13T03:13:16.166Z,992.88
2017-05-13T03:14:16.208Z,992.87
2017-05-13T03:15:16.244Z,992.9
2017-05-13T03:16:16.285Z,992.88
2017-05-13T03:17:16.323Z,992.9
2017-05-13T03:18:16.363Z,992.88
2017-05-13T03:19:16.401Z,992.92
2017-05-13T03:20:16.441Z,992.88
2017-05-13T03:21:16.479Z,992.88
2017-05-13T03:22:16.520Z,992.87
2017-05-13T03:23:16.557Z,992.87
2017-05-13T03:24:16.599Z,992.88
2017-05-13T03:25:16.636Z,992.88
2017-05-13T03:26:16.674Z,992.83
2017-05-13T03:27:16.713Z,992.84
2017-05-13T03:28:16.753Z,992.89
2017-05-13T03:29:16.792Z,992.89
2017-05-13T03:30:16.830Z,992.87
2017-05-13T03:31:16.868Z,992.88
2017-05-13T03:32:16.907Z,992.89
2017-05-13T03:33:16.946Z,992.88
2017-05-13T03:34:16.984Z,992.88
2017-05-13T03:35:17.024Z,992.9
2017-05-13T03:36:17.063Z,992.89
2017-05-13T03:37:17.102Z,992.89
2017-05-13T03:38:17.140Z,992.87
2017-05-13T03:39:17.181Z,992.9
2017-05-13T03:40:17.217Z,992.89
2017-05-13T03:41:17.256Z,992.9
2017-05-13T03:42:17.295Z,992.92
2017-05-13T03:43:17.335Z,992.91
2017-05-13T03:44:17.374Z,992.92
2017-05-13T03:45:17.413Z,992.93
2017-05-13T03:46:17.452Z,992.93
2017-05-13T03:47:17.489Z,992.94
2017-05-13T03:48:17.530Z,992.94
2017-05-13T03:49:17.568Z,992.95
2017-05-13T03:50:17.608Z,992.98
2017-05-13T03:51:17.645Z,993.01
2017-05-13T03:52:17.685Z,993
2017-05-13T03:53:17.723Z,992.97
2017-05-13T03:54:17.762Z,993.01
2017-05-13T03:55:17.802Z,993
2017-05-13T03:56:17.839Z,993.05
2017-05-13T03:57:17.880Z,993.03
2017-05-13T03:58:17.918Z,993.07
2017-05-13T03:59:17.958Z,993.05
2017-05-13T04:00:17.997Z,993.09
2017-05-13T04:01:18.036Z,993.07
2017-05-13T04:02:18.074Z,993.09
2017-05-13T04:03:18.112Z,993.11
2017-05-13T04:04:18.151Z,993.13
2017-05-13T04:05:18.190Z,993.15
2017-05-13T04:06:18.230Z,993.15
2017-05-13T04:07:18.268Z,993.17
2017-05-13T04:08:18.309Z,993.18
2017-05-13T04:09:18.350Z,993.18
2017-05-13T04:10:18.384Z,993.2
2017-05-13T04:11:18.425Z,993.21
2017-05-13T04:12:18.463Z,993.23
2017-05-13T04:13:18.503Z,993.24
2017-05-13T04:14:18.540Z,993.21
2017-05-13T04:15:18.582Z,993.24
2017-05-13T04:16:18.619Z,993.26
2017-05-13T04:17:18.659Z,993.25
2017-05-13T04:18:18.696Z,993.26
2017-05-13T04:19:18.736Z,993.26
2017-05-13T04:20:18.776Z,993.28
2017-05-13T04:21:18.813Z,993.27
2017-05-13T04:22:18.854Z,993.31
2017-05-13T04:23:18.892Z,993.37
2017-05-13T04:24:18.930Z,993.33
2017-05-13T04:25:18.969Z,993.36
2017-05-13T04:26:19.007Z,993.35
2017-05-13T04:27:19.047Z,993.34
2017-05-13T04:28:19.085Z,993.37
2017-05-13T04:29:19.126Z,993.37
2017-05-13T04:30:19.165Z,993.39
2017-05-13T04:31:19.203Z,993.36
2017-05-13T04:32:19.242Z,993.38
2017-05-13T04:33:19.282Z,993.38
2017-05-13T04:34:19.321Z,993.41
2017-05-13T04:35:19.358Z,993.43
2017-05-13T04:36:19.397Z,993.4
2017-05-13T04:37:19.436Z,993.45
2017-05-13T04:38:19.476Z,993.44
2017-05-13T04:39:19.515Z,993.46
2017-05-13T04:40:19.553Z,993.49
2017-05-13T04:41:19.593Z,993.46
2017-05-13T04:42:19.631Z,993.47
2017-05-13T04:43:19.669Z,993.5
2017-05-13T04:44:19.709Z,993.48
2017-05-13T04:45:19.749Z,993.49
2017-05-13T04:46:19.785Z,993.52
2017-05-13T04:47:19.825Z,993.54
2017-05-13T04:48:19.864Z,993.53
2017-05-13T04:49:19.903Z,993.51
2017-05-13T04:50:19.942Z,993.52
2017-05-13T04:51:19.981Z,993.49
2017-05-13T04:52:20.020Z,993.49
2017-05-13T04:53:20.060Z,993.48
2017-05-13T04:54:20.099Z,993.49
2017-05-13T04:55:20.137Z,993.53
2017-05-13T04:56:20.178Z,993.51
2017-05-13T04:57:20.216Z,993.51
2017-05-13T04:58:20.253Z,993.49
2017-05-13T04:59:20.294Z,993.48
2017-05-13T05:00:20.332Z,993.49
2017-05-13T05:01:20.370Z,993.51
2017-05-13T05:02:20.411Z,993.51
2017-05-13T05:03:20.448Z,993.53
2017-05-13T05:04:20.486Z,993.56
2017-05-13T05:05:20.525Z,993.61
2017-05-13T05:06:20.567Z,993.6
2017-05-13T05:07:20.606Z,993.65
2017-05-13T05:08:20.646Z,993.66
2017-05-13T05:09:20.684Z,993.69
2017-05-13T05:10:20.721Z,993.66
2017-05-13T05:11:20.761Z,993.65
2017-05-13T05:12:20.799Z,993.68
2017-05-13T05:13:20.837Z,993.71
2017-05-13T05:14:20.878Z,993.67
2017-05-13T05:15:20.915Z,993.7
2017-05-13T05:16:20.955Z,993.71
2017-05-13T05:17:20.994Z,993.7
2017-05-13T05:18:21.034Z,993.72
2017-05-13T05:19:21.071Z,993.72
2017-05-13T05:20:21.112Z,993.72
2017-05-13T05:21:21.150Z,993.71
2017-05-13T05:22:21.191Z,993.76
2017-05-13T05:23:21.228Z,993.73
2017-05-13T05:24:21.268Z,993.76
2017-05-13T05:25:21.314Z,993.8
2017-05-13T05:26:21.346Z,993.78
2017-05-13T05:27:21.384Z,993.84
2017-05-13T05:28:21.425Z,993.84
2017-05-13T05:29:21.463Z,993.93
2017-05-13T05:30:21.502Z,993.93
2017-05-13T05:31:21.583Z,993.93
2017-05-13T05:32:21.581Z,993.93
2017-05-13T05:33:21.621Z,993.96
2017-05-13T05:34:21.659Z,993.94
2017-05-13T05:35:21.700Z,993.99
2017-05-13T05:36:21.739Z,994.01
2017-05-13T05:37:21.777Z,994.01
2017-05-13T05:38:21.818Z,994.03
2017-05-13T05:39:21.874Z,994.05
2017-05-13T05:40:21.897Z,994.03
2017-05-13T05:41:21.936Z,994.03
2017-05-13T05:42:21.977Z,994.02
2017-05-13T05:43:22.015Z,994.07
2017-05-13T05:44:22.055Z,994.03
2017-05-13T05:45:22.094Z,994.07
2017-05-13T05:46:22.133Z,994.09
2017-05-13T05:47:22.174Z,994.11
2017-05-13T05:48:22.213Z,994.13
2017-05-13T05:49:22.254Z,994.14
2017-05-13T05:50:22.291Z,994.15
2017-05-13T05:51:22.334Z,994.13
2017-05-13T05:52:22.372Z,994.14
2017-05-13T05:53:22.413Z,994.19
2017-05-13T05:54:22.451Z,994.2
2017-05-13T05:55:22.493Z,994.19
2017-05-13T05:56:22.532Z,994.22
2017-05-13T05:57:22.580Z,994.24
2017-05-13T05:58:22.613Z,994.25
2017-05-13T05:59:22.652Z,994.25
2017-05-13T06:00:22.692Z,994.28
2017-05-13T06:01:22.732Z,994.29
2017-05-13T06:02:22.774Z,994.27
2017-05-13T06:03:22.813Z,994.31
2017-05-13T06:04:22.851Z,994.32
2017-05-13T06:05:22.916Z,994.32
2017-05-13T06:06:22.934Z,994.31
2017-05-13T06:07:22.971Z,994.33
2017-05-13T06:08:23.012Z,994.32
2017-05-13T06:09:23.052Z,994.32
2017-05-13T06:10:23.095Z,994.36
2017-05-13T06:11:23.133Z,994.35
2017-05-13T06:12:23.197Z,994.37
2017-05-13T06:13:23.213Z,994.35
2017-05-13T06:14:23.253Z,994.32
2017-05-13T06:15:23.294Z,994.39
2017-05-13T06:16:23.333Z,994.39
2017-05-13T06:17:23.374Z,994.39
2017-05-13T06:18:23.413Z,994.38
2017-05-13T06:19:23.454Z,994.42
2017-05-13T06:20:23.494Z,994.44
2017-05-13T06:21:23.535Z,994.45
2017-05-13T06:22:23.573Z,994.41
2017-05-13T06:23:23.616Z,994.41
2017-05-13T06:24:23.655Z,994.44
2017-05-13T06:25:23.694Z,994.43
2017-05-13T06:26:23.756Z,994.45
2017-05-13T06:27:23.775Z,994.44
2017-05-13T06:28:23.816Z,994.51
2017-05-13T06:29:23.857Z,994.54
2017-05-13T06:30:23.898Z,994.56
2017-05-13T06:31:23.953Z,994.55
2017-05-13T06:32:23.980Z,994.53
2017-05-13T06:33:24.020Z,994.53
2017-05-13T06:34:24.064Z,994.55
2017-05-13T06:35:24.105Z,994.54
2017-05-13T06:36:24.142Z,994.58
2017-05-13T06:37:24.190Z,994.62
2017-05-13T06:38:24.224Z,994.64
2017-05-13T06:39:24.266Z,994.61
2017-05-13T06:40:24.307Z,994.63
2017-05-13T06:41:24.348Z,994.62
2017-05-13T06:42:24.391Z,994.66
2017-05-13T06:43:24.431Z,994.64
2017-05-13T06:44:24.472Z,994.64
2017-05-13T06:45:24.513Z,994.61
2017-05-13T06:46:24.556Z,994.61
2017-05-13T06:47:24.597Z,994.63
2017-05-13T06:48:24.638Z,994.64
2017-05-13T06:49:24.680Z,994.65
2017-05-13T06:50:24.721Z,994.63
2017-05-13T06:51:24.763Z,994.63
2017-05-13T06:52:24.804Z,994.63
2017-05-13T06:53:24.848Z,994.69
2017-05-13T06:54:24.887Z,994.68
2017-05-13T06:55:24.930Z,994.71
2017-05-13T06:56:24.972Z,994.77
2017-05-13T06:57:25.014Z,994.71
2017-05-13T06:58:25.056Z,994.72
2017-05-13T06:59:25.097Z,994.75
2017-05-13T07:00:25.141Z,994.73
2017-05-13T07:01:25.182Z,994.73
2017-05-13T07:02:25.233Z,994.8
2017-05-13T07:03:25.270Z,994.8
2017-05-13T07:04:25.311Z,994.84
2017-05-13T07:05:25.352Z,994.82
2017-05-13T07:06:25.395Z,994.82
2017-05-13T07:07:25.437Z,994.83
2017-05-13T07:08:25.481Z,994.87
2017-05-13T07:09:25.522Z,994.9
2017-05-13T07:10:25.566Z,994.9
2017-05-13T07:11:25.612Z,994.93
2017-05-13T07:12:25.647Z,994.96
2017-05-13T07:13:25.691Z,994.96
2017-05-13T07:14:25.731Z,994.98
2017-05-13T07:15:25.775Z,994.97
2017-05-13T07:16:25.818Z,994.98
2017-05-13T07:17:25.859Z,994.99
2017-05-13T07:18:25.900Z,995.02
2017-05-13T07:19:25.944Z,995.01
2017-05-13T07:20:25.983Z,995.05
2017-05-13T07:21:26.026Z,995.07
2017-05-13T07:22:26.070Z,995.05
2017-05-13T07:23:26.110Z,995.08
2017-05-13T07:24:26.153Z,995.09
2017-05-13T07:25:26.194Z,995.12
2017-05-13T07:26:26.237Z,995.11
2017-05-13T07:27:26.278Z,995.12
2017-05-13T07:28:26.321Z,995.14
2017-05-13T07:29:26.363Z,995.14
2017-05-13T07:30:26.406Z,995.15
2017-05-13T07:31:26.446Z,995.13
2017-05-13T07:32:26.489Z,995.11
2017-05-13T07:33:26.530Z,995.15
2017-05-13T07:34:26.572Z,995.15
2017-05-13T07:35:26.614Z,995.17
2017-05-13T07:36:26.656Z,995.15
2017-05-13T07:37:26.698Z,995.2
2017-05-13T07:38:26.739Z,995.17
2017-05-13T07:39:26.781Z,995.19
2017-05-13T07:40:26.848Z,995.21
2017-05-13T07:41:26.866Z,995.22
2017-05-13T07:42:26.907Z,995.19
2017-05-13T07:43:26.951Z,995.26
2017-05-13T07:44:26.993Z,995.26
2017-05-13T07:45:27.035Z,995.29
2017-05-13T07:46:27.077Z,995.28
2017-05-13T07:47:27.120Z,995.32
2017-05-13T07:48:27.160Z,995.33
2017-05-13T07:49:27.202Z,995.34
2017-05-13T07:50:27.244Z,995.33
2017-05-13T07:51:27.288Z,995.32
2017-05-13T07:52:27.329Z,995.35
2017-05-13T07:53:27.372Z,995.34
2017-05-13T07:54:27.414Z,995.32
2017-05-13T07:55:27.456Z,995.37
2017-05-13T07:56:27.499Z,995.35
2017-05-13T07:57:27.540Z,995.35
2017-05-13T07:58:27.583Z,995.35
2017-05-13T07:59:27.639Z,995.38
2017-05-13T08:00:27.668Z,995.39
2017-05-13T08:01:27.712Z,995.37
2017-05-13T08:02:27.753Z,995.38
2017-05-13T08:03:27.796Z,995.46
2017-05-13T08:04:27.840Z,995.45
2017-05-13T08:05:27.884Z,995.52
2017-05-13T08:06:27.926Z,995.48
2017-05-13T08:07:27.967Z,995.48
2017-05-13T08:08:28.010Z,995.48
2017-05-13T08:09:28.054Z,995.45
2017-05-13T08:10:28.098Z,995.5
2017-05-13T08:11:28.140Z,995.55
2017-05-13T08:12:28.182Z,995.52
2017-05-13T08:13:28.239Z,995.53
2017-05-13T08:14:28.270Z,995.53
2017-05-13T08:15:28.313Z,995.55
2017-05-13T08:16:28.358Z,995.57
2017-05-13T08:17:28.404Z,995.55
2017-05-13T08:18:28.447Z,995.59
2017-05-13T08:19:28.490Z,995.53
2017-05-13T08:20:28.535Z,995.59
2017-05-13T08:21:28.581Z,995.58
2017-05-13T08:22:28.626Z,995.71
2017-05-13T08:23:28.672Z,995.66
2017-05-13T08:24:28.717Z,995.62
2017-05-13T08:25:28.765Z,995.72
2017-05-13T08:26:28.808Z,995.8
2017-05-13T08:27:28.894Z,995.69
2017-05-13T08:28:28.902Z,995.75
2017-05-13T08:29:28.947Z,995.73
2017-05-13T08:30:28.994Z,995.75
2017-05-13T08:31:29.042Z,995.78
2017-05-13T08:32:29.091Z,995.77
2017-05-13T08:33:29.137Z,995.71
2017-05-13T08:34:29.184Z,995.72
2017-05-13T08:35:29.232Z,995.83
2017-05-13T08:36:29.280Z,995.8
2017-05-13T08:37:29.329Z,995.8
2017-05-13T08:38:29.376Z,995.82
2017-05-13T08:39:29.427Z,995.75
2017-05-13T08:40:29.473Z,995.75
2017-05-13T08:41:29.531Z,995.78
2017-05-13T08:42:29.568Z,995.8
2017-05-13T08:43:29.618Z,995.79
2017-05-13T08:44:29.664Z,995.81
2017-05-13T08:45:29.712Z,995.82
2017-05-13T08:46:29.761Z,995.83
2017-05-13T08:47:29.808Z,995.85
2017-05-13T08:48:29.857Z,995.83
2017-05-13T08:49:29.902Z,995.86
2017-05-13T08:50:29.951Z,995.93
2017-05-13T08:51:29.998Z,995.93
